sensor_id;sensor_type;location;lat;lon;timestamp;pressure;altitude;pressure_sealevel;temperature;humidity
20115;BME280;10218;42.874;25.320;2023-01-24T00:01:04;98445.56;;;5.71;100.00
20115;BME280;10218;42.874;25.320;2023-01-24T00:03:31;98436.59;;;5.97;100.00
20115;BME280;10218;42.874;25.320;2023-01-24T00:05:58;98438.19;;;6.23;100.00
20115;BME280;10218;42.874;25.320;2023-01-24T00:08:25;98438.31;;;5.85;100.00
20115;BME280;10218;42.874;25.320;2023-01-24T00:11:04;98432.63;;;5.79;100.00
20115;BME280;10218;42.874;25.320;2023-01-24T00:13:33;98437.22;;;6.24;100.00
20115;BME280;10218;42.874;25.320;2023-01-24T00:16:14;98431.13;;;5.87;100.00
20115;BME280;10218;42.874;25.320;2023-01-24T00:18:42;98428.38;;;5.89;100.00
20115;BME280;10218;42.874;25.320;2023-01-24T00:21:14;98436.25;;;6.01;100.00
20115;BME280;10218;42.874;25.320;2023-01-24T00:23:47;98433.72;;;5.64;100.00
20115;BME280;10218;42.874;25.320;2023-01-24T00:26:15;98442.84;;;5.59;100.00
20115;BME280;10218;42.874;25.320;2023-01-24T00:28:43;98436.06;;;5.55;100.00
20115;BME280;10218;42.874;25.320;2023-01-24T00:31:11;98437.44;;;5.61;100.00
20115;BME280;10218;42.874;25.320;2023-01-24T00:33:39;98438.19;;;5.50;100.00
20115;BME280;10218;42.874;25.320;2023-01-24T00:36:07;98446.59;;;5.81;100.00
20115;BME280;10218;42.874;25.320;2023-01-24T00:38:34;98448.91;;;5.49;100.00
20115;BME280;10218;42.874;25.320;2023-01-24T00:41:02;98448.84;;;5.25;100.00
20115;BME280;10218;42.874;25.320;2023-01-24T00:43:29;98449.41;;;5.54;100.00
20115;BME280;10218;42.874;25.320;2023-01-24T00:45:56;98451.41;;;5.14;100.00
20115;BME280;10218;42.874;25.320;2023-01-24T00:48:24;98453.44;;;5.23;100.00
20115;BME280;10218;42.874;25.320;2023-01-24T00:50:52;98448.88;;;5.12;100.00
20115;BME280;10218;42.874;25.320;2023-01-24T00:53:19;98455.94;;;5.37;100.00
20115;BME280;10218;42.874;25.320;2023-01-24T00:55:47;98448.31;;;5.69;100.00
20115;BME280;10218;42.874;25.320;2023-01-24T00:58:16;98449.84;;;5.60;100.00
20115;BME280;10218;42.874;25.320;2023-01-24T01:00:43;98457.34;;;5.18;100.00
20115;BME280;10218;42.874;25.320;2023-01-24T01:03:13;98443.03;;;5.33;100.00
20115;BME280;10218;42.874;25.320;2023-01-24T01:05:41;98458.78;;;5.34;100.00
20115;BME280;10218;42.874;25.320;2023-01-24T01:08:09;98460.25;;;5.64;100.00
20115;BME280;10218;42.874;25.320;2023-01-24T01:10:37;98453.00;;;5.66;100.00
20115;BME280;10218;42.874;25.320;2023-01-24T01:13:05;98452.06;;;5.54;100.00
20115;BME280;10218;42.874;25.320;2023-01-24T01:15:32;98456.03;;;5.36;100.00
20115;BME280;10218;42.874;25.320;2023-01-24T01:18:00;98458.03;;;5.45;100.00
20115;BME280;10218;42.874;25.320;2023-01-24T01:20:28;98460.00;;;5.67;100.00
20115;BME280;10218;42.874;25.320;2023-01-24T01:22:55;98460.38;;;5.24;100.00
20115;BME280;10218;42.874;25.320;2023-01-24T01:25:23;98463.66;;;5.40;100.00
20115;BME280;10218;42.874;25.320;2023-01-24T01:27:50;98457.59;;;5.51;100.00
20115;BME280;10218;42.874;25.320;2023-01-24T01:30:17;98462.22;;;5.11;100.00
20115;BME280;10218;42.874;25.320;2023-01-24T01:32:45;98458.50;;;5.26;100.00
20115;BME280;10218;42.874;25.320;2023-01-24T01:35:13;98460.81;;;5.31;100.00
20115;BME280;10218;42.874;25.320;2023-01-24T01:37:40;98460.00;;;5.18;100.00
20115;BME280;10218;42.874;25.320;2023-01-24T01:40:08;98447.56;;;5.43;100.00
20115;BME280;10218;42.874;25.320;2023-01-24T01:42:54;98468.16;;;5.27;100.00
20115;BME280;10218;42.874;25.320;2023-01-24T01:45:37;98466.03;;;4.82;100.00
20115;BME280;10218;42.874;25.320;2023-01-24T01:50:40;98471.06;;;4.59;100.00
20115;BME280;10218;42.874;25.320;2023-01-24T01:53:11;98466.31;;;4.64;100.00
20115;BME280;10218;42.874;25.320;2023-01-24T01:55:42;98465.28;;;5.05;100.00
20115;BME280;10218;42.874;25.320;2023-01-24T01:58:10;98449.66;;;4.62;100.00
20115;BME280;10218;42.874;25.320;2023-01-24T02:00:38;98451.38;;;4.63;100.00
20115;BME280;10218;42.874;25.320;2023-01-24T02:03:10;98473.88;;;4.31;100.00
20115;BME280;10218;42.874;25.320;2023-01-24T02:05:58;98470.97;;;4.73;100.00
20115;BME280;10218;42.874;25.320;2023-01-24T02:08:27;98464.72;;;4.62;100.00
20115;BME280;10218;42.874;25.320;2023-01-24T02:10:57;98471.28;;;4.56;100.00
20115;BME280;10218;42.874;25.320;2023-01-24T02:13:45;98469.06;;;4.63;100.00
20115;BME280;10218;42.874;25.320;2023-01-24T02:16:14;98473.78;;;4.45;100.00
20115;BME280;10218;42.874;25.320;2023-01-24T02:18:42;98480.97;;;4.43;100.00
20115;BME280;10218;42.874;25.320;2023-01-24T02:21:13;98468.56;;;4.31;100.00
20115;BME280;10218;42.874;25.320;2023-01-24T02:26:28;98487.28;;;4.28;100.00
20115;BME280;10218;42.874;25.320;2023-01-24T02:28:59;98465.25;;;4.27;100.00
20115;BME280;10218;42.874;25.320;2023-01-24T02:31:29;98485.53;;;3.87;100.00
20115;BME280;10218;42.874;25.320;2023-01-24T02:33:56;98492.37;;;4.31;100.00
20115;BME280;10218;42.874;25.320;2023-01-24T02:36:35;98488.22;;;4.27;100.00
20115;BME280;10218;42.874;25.320;2023-01-24T02:39:12;98495.88;;;4.05;100.00
20115;BME280;10218;42.874;25.320;2023-01-24T02:42:05;98495.97;;;4.30;100.00
20115;BME280;10218;42.874;25.320;2023-01-24T02:44:40;98497.03;;;4.01;100.00
20115;BME280;10218;42.874;25.320;2023-01-24T02:47:09;98491.69;;;4.42;100.00
20115;BME280;10218;42.874;25.320;2023-01-24T02:49:37;98491.37;;;4.19;100.00
20115;BME280;10218;42.874;25.320;2023-01-24T02:52:04;98487.25;;;4.15;100.00
20115;BME280;10218;42.874;25.320;2023-01-24T02:54:50;98498.97;;;3.84;100.00
20115;BME280;10218;42.874;25.320;2023-01-24T02:57:17;98493.41;;;3.75;100.00
20115;BME280;10218;42.874;25.320;2023-01-24T03:00:05;98488.97;;;4.29;100.00
20115;BME280;10218;42.874;25.320;2023-01-24T03:02:33;98492.63;;;4.14;100.00
20115;BME280;10218;42.874;25.320;2023-01-24T03:05:00;98487.09;;;4.31;100.00
20115;BME280;10218;42.874;25.320;2023-01-24T03:07:28;98497.88;;;4.01;100.00
20115;BME280;10218;42.874;25.320;2023-01-24T03:10:14;98484.87;;;3.84;100.00
20115;BME280;10218;42.874;25.320;2023-01-24T03:12:42;98493.88;;;4.35;100.00
20115;BME280;10218;42.874;25.320;2023-01-24T03:15:28;98484.63;;;4.55;100.00
20115;BME280;10218;42.874;25.320;2023-01-24T03:18:14;98484.28;;;4.47;100.00
20115;BME280;10218;42.874;25.320;2023-01-24T03:21:00;98483.97;;;4.51;100.00
20115;BME280;10218;42.874;25.320;2023-01-24T03:23:46;98490.06;;;4.39;100.00
20115;BME280;10218;42.874;25.320;2023-01-24T03:26:32;98493.69;;;3.56;100.00
20115;BME280;10218;42.874;25.320;2023-01-24T03:29:18;98485.22;;;3.92;100.00
20115;BME280;10218;42.874;25.320;2023-01-24T03:32:04;98495.06;;;4.17;100.00
20115;BME280;10218;42.874;25.320;2023-01-24T03:34:51;98489.12;;;4.40;100.00
20115;BME280;10218;42.874;25.320;2023-01-24T03:37:21;98492.22;;;4.20;100.00
20115;BME280;10218;42.874;25.320;2023-01-24T03:40:12;98486.28;;;3.90;100.00
20115;BME280;10218;42.874;25.320;2023-01-24T03:42:41;98486.22;;;3.77;100.00
20115;BME280;10218;42.874;25.320;2023-01-24T03:45:18;98490.47;;;4.33;100.00
20115;BME280;10218;42.874;25.320;2023-01-24T03:47:49;98486.81;;;4.48;100.00
20115;BME280;10218;42.874;25.320;2023-01-24T03:50:34;98491.31;;;4.34;100.00
20115;BME280;10218;42.874;25.320;2023-01-24T03:53:23;98488.91;;;4.43;100.00
20115;BME280;10218;42.874;25.320;2023-01-24T03:55:52;98483.06;;;4.25;100.00
20115;BME280;10218;42.874;25.320;2023-01-24T03:58:20;98483.72;;;3.88;100.00
20115;BME280;10218;42.874;25.320;2023-01-24T04:00:48;98493.59;;;3.72;100.00
20115;BME280;10218;42.874;25.320;2023-01-24T04:03:18;98491.31;;;3.80;100.00
20115;BME280;10218;42.874;25.320;2023-01-24T04:05:46;98493.84;;;3.81;100.00
20115;BME280;10218;42.874;25.320;2023-01-24T04:08:15;98481.50;;;4.09;100.00
20115;BME280;10218;42.874;25.320;2023-01-24T04:10:43;98488.00;;;3.91;100.00
20115;BME280;10218;42.874;25.320;2023-01-24T04:13:11;98485.00;;;3.68;100.00
20115;BME280;10218;42.874;25.320;2023-01-24T04:15:38;98493.28;;;3.91;100.00
20115;BME280;10218;42.874;25.320;2023-01-24T04:18:08;98486.94;;;3.93;100.00
20115;BME280;10218;42.874;25.320;2023-01-24T04:20:36;98489.66;;;3.92;100.00
20115;BME280;10218;42.874;25.320;2023-01-24T04:23:08;98489.28;;;3.98;100.00
20115;BME280;10218;42.874;25.320;2023-01-24T04:25:36;98482.97;;;3.45;100.00
20115;BME280;10218;42.874;25.320;2023-01-24T04:28:03;98462.50;;;3.34;100.00
20115;BME280;10218;42.874;25.320;2023-01-24T04:30:31;98492.47;;;4.03;100.00
20115;BME280;10218;42.874;25.320;2023-01-24T04:33:00;98494.25;;;3.75;100.00
20115;BME280;10218;42.874;25.320;2023-01-24T04:35:28;98494.25;;;3.75;100.00
20115;BME280;10218;42.874;25.320;2023-01-24T04:38:00;98488.44;;;3.14;100.00
20115;BME280;10218;42.874;25.320;2023-01-24T04:40:29;98488.69;;;3.66;100.00
20115;BME280;10218;42.874;25.320;2023-01-24T04:42:57;98501.25;;;3.62;100.00
20115;BME280;10218;42.874;25.320;2023-01-24T04:45:25;98477.47;;;3.62;100.00
20115;BME280;10218;42.874;25.320;2023-01-24T04:47:53;98496.88;;;3.90;100.00
20115;BME280;10218;42.874;25.320;2023-01-24T04:50:22;98499.63;;;3.74;100.00
20115;BME280;10218;42.874;25.320;2023-01-24T04:52:49;98501.84;;;3.39;100.00
20115;BME280;10218;42.874;25.320;2023-01-24T04:55:17;98495.06;;;3.35;100.00
20115;BME280;10218;42.874;25.320;2023-01-24T04:57:44;98497.84;;;3.46;100.00
20115;BME280;10218;42.874;25.320;2023-01-24T05:00:11;98500.50;;;3.32;100.00
20115;BME280;10218;42.874;25.320;2023-01-24T05:02:41;98507.47;;;3.61;100.00
20115;BME280;10218;42.874;25.320;2023-01-24T05:05:08;98502.84;;;3.79;100.00
20115;BME280;10218;42.874;25.320;2023-01-24T05:07:36;98507.63;;;3.86;100.00
20115;BME280;10218;42.874;25.320;2023-01-24T05:10:05;98506.25;;;3.10;100.00
20115;BME280;10218;42.874;25.320;2023-01-24T05:12:33;98504.09;;;3.59;100.00
20115;BME280;10218;42.874;25.320;2023-01-24T05:15:01;98514.41;;;3.50;100.00
20115;BME280;10218;42.874;25.320;2023-01-24T05:17:28;98509.19;;;3.62;100.00
20115;BME280;10218;42.874;25.320;2023-01-24T05:19:56;98513.13;;;3.83;100.00
20115;BME280;10218;42.874;25.320;2023-01-24T05:22:23;98514.56;;;3.32;100.00
20115;BME280;10218;42.874;25.320;2023-01-24T05:24:50;98514.66;;;3.17;100.00
20115;BME280;10218;42.874;25.320;2023-01-24T05:27:17;98512.28;;;2.98;100.00
20115;BME280;10218;42.874;25.320;2023-01-24T05:29:45;98513.50;;;3.77;100.00
20115;BME280;10218;42.874;25.320;2023-01-24T05:32:12;98523.84;;;3.39;100.00
20115;BME280;10218;42.874;25.320;2023-01-24T05:34:40;98527.50;;;3.23;100.00
20115;BME280;10218;42.874;25.320;2023-01-24T05:37:07;98523.06;;;3.37;100.00
20115;BME280;10218;42.874;25.320;2023-01-24T05:39:35;98508.84;;;3.81;100.00
20115;BME280;10218;42.874;25.320;2023-01-24T05:42:02;98527.28;;;3.68;100.00
20115;BME280;10218;42.874;25.320;2023-01-24T05:44:30;98520.50;;;3.22;100.00
20115;BME280;10218;42.874;25.320;2023-01-24T05:46:59;98528.06;;;3.14;100.00
20115;BME280;10218;42.874;25.320;2023-01-24T05:49:27;98536.56;;;3.47;100.00
20115;BME280;10218;42.874;25.320;2023-01-24T05:51:54;98538.47;;;3.45;100.00
20115;BME280;10218;42.874;25.320;2023-01-24T05:54:23;98542.75;;;3.04;100.00
20115;BME280;10218;42.874;25.320;2023-01-24T05:56:51;98540.50;;;3.26;100.00
20115;BME280;10218;42.874;25.320;2023-01-24T05:59:18;98554.34;;;3.86;100.00
20115;BME280;10218;42.874;25.320;2023-01-24T06:01:45;98561.47;;;3.57;100.00
20115;BME280;10218;42.874;25.320;2023-01-24T06:04:13;98561.69;;;2.96;100.00
20115;BME280;10218;42.874;25.320;2023-01-24T06:06:40;98570.59;;;3.09;100.00
20115;BME280;10218;42.874;25.320;2023-01-24T06:09:08;98572.59;;;3.34;100.00
20115;BME280;10218;42.874;25.320;2023-01-24T06:11:37;98577.94;;;2.74;100.00
20115;BME280;10218;42.874;25.320;2023-01-24T06:14:05;98576.81;;;2.78;100.00
20115;BME280;10218;42.874;25.320;2023-01-24T06:16:32;98574.69;;;3.57;100.00
20115;BME280;10218;42.874;25.320;2023-01-24T06:19:00;98571.25;;;3.13;100.00
20115;BME280;10218;42.874;25.320;2023-01-24T06:21:48;98577.47;;;3.12;100.00
20115;BME280;10218;42.874;25.320;2023-01-24T06:24:18;98569.47;;;3.41;100.00
20115;BME280;10218;42.874;25.320;2023-01-24T06:26:47;98571.88;;;3.60;100.00
20115;BME280;10218;42.874;25.320;2023-01-24T06:29:15;98560.87;;;3.66;100.00
20115;BME280;10218;42.874;25.320;2023-01-24T06:39:54;98570.78;;;3.77;100.00
20115;BME280;10218;42.874;25.320;2023-01-24T06:42:22;98576.16;;;3.05;100.00
20115;BME280;10218;42.874;25.320;2023-01-24T06:44:51;98567.78;;;3.69;100.00
20115;BME280;10218;42.874;25.320;2023-01-24T06:47:18;98576.53;;;3.27;100.00
20115;BME280;10218;42.874;25.320;2023-01-24T06:49:45;98580.25;;;3.53;100.00
20115;BME280;10218;42.874;25.320;2023-01-24T06:52:12;98580.97;;;3.40;100.00
20115;BME280;10218;42.874;25.320;2023-01-24T06:54:40;98586.91;;;3.16;100.00
20115;BME280;10218;42.874;25.320;2023-01-24T06:57:07;98578.44;;;3.25;100.00
20115;BME280;10218;42.874;25.320;2023-01-24T06:59:34;98578.47;;;3.39;100.00
20115;BME280;10218;42.874;25.320;2023-01-24T07:02:01;98585.56;;;2.94;100.00
20115;BME280;10218;42.874;25.320;2023-01-24T07:04:28;98588.78;;;2.99;100.00
20115;BME280;10218;42.874;25.320;2023-01-24T07:06:56;98589.81;;;3.11;100.00
20115;BME280;10218;42.874;25.320;2023-01-24T07:09:23;98589.41;;;3.47;100.00
20115;BME280;10218;42.874;25.320;2023-01-24T07:11:50;98587.25;;;3.54;100.00
20115;BME280;10218;42.874;25.320;2023-01-24T07:14:22;98592.72;;;3.07;100.00
20115;BME280;10218;42.874;25.320;2023-01-24T07:16:50;98587.88;;;3.15;100.00
20115;BME280;10218;42.874;25.320;2023-01-24T07:19:20;98598.31;;;3.16;100.00
20115;BME280;10218;42.874;25.320;2023-01-24T07:21:53;98603.44;;;3.33;100.00
20115;BME280;10218;42.874;25.320;2023-01-24T07:24:24;98603.69;;;2.85;100.00
20115;BME280;10218;42.874;25.320;2023-01-24T07:26:54;98613.84;;;2.77;100.00
20115;BME280;10218;42.874;25.320;2023-01-24T07:29:21;98612.09;;;3.21;100.00
20115;BME280;10218;42.874;25.320;2023-01-24T07:31:49;98608.06;;;3.30;100.00
20115;BME280;10218;42.874;25.320;2023-01-24T07:34:18;98607.16;;;3.73;100.00
20115;BME280;10218;42.874;25.320;2023-01-24T07:36:46;98617.97;;;3.40;100.00
20115;BME280;10218;42.874;25.320;2023-01-24T07:39:15;98610.38;;;3.50;100.00
20115;BME280;10218;42.874;25.320;2023-01-24T07:41:42;98618.44;;;3.33;100.00
20115;BME280;10218;42.874;25.320;2023-01-24T07:44:12;98626.97;;;2.78;100.00
20115;BME280;10218;42.874;25.320;2023-01-24T07:46:39;98636.13;;;2.87;100.00
20115;BME280;10218;42.874;25.320;2023-01-24T07:49:06;98625.62;;;3.01;100.00
20115;BME280;10218;42.874;25.320;2023-01-24T07:51:34;98635.88;;;3.21;100.00
20115;BME280;10218;42.874;25.320;2023-01-24T07:54:01;98633.00;;;3.10;100.00
20115;BME280;10218;42.874;25.320;2023-01-24T07:56:28;98639.63;;;3.17;100.00
20115;BME280;10218;42.874;25.320;2023-01-24T07:58:56;98639.00;;;2.98;100.00
20115;BME280;10218;42.874;25.320;2023-01-24T08:01:24;98643.19;;;3.16;100.00
20115;BME280;10218;42.874;25.320;2023-01-24T08:03:56;98643.41;;;3.13;100.00
20115;BME280;10218;42.874;25.320;2023-01-24T08:06:23;98640.69;;;2.69;100.00
20115;BME280;10218;42.874;25.320;2023-01-24T08:08:51;98638.22;;;3.26;100.00
20115;BME280;10218;42.874;25.320;2023-01-24T08:11:20;98643.13;;;3.18;100.00
20115;BME280;10218;42.874;25.320;2023-01-24T08:13:48;98642.00;;;2.92;100.00
20115;BME280;10218;42.874;25.320;2023-01-24T08:16:17;98632.69;;;3.00;100.00
20115;BME280;10218;42.874;25.320;2023-01-24T08:18:44;98651.41;;;3.12;100.00
20115;BME280;10218;42.874;25.320;2023-01-24T08:21:11;98652.50;;;3.37;100.00
20115;BME280;10218;42.874;25.320;2023-01-24T08:23:40;98653.03;;;3.14;100.00
20115;BME280;10218;42.874;25.320;2023-01-24T08:26:08;98654.09;;;2.80;100.00
20115;BME280;10218;42.874;25.320;2023-01-24T08:28:35;98652.87;;;3.01;100.00
20115;BME280;10218;42.874;25.320;2023-01-24T08:31:02;98652.94;;;3.74;100.00
20115;BME280;10218;42.874;25.320;2023-01-24T08:33:29;98655.97;;;3.24;100.00
20115;BME280;10218;42.874;25.320;2023-01-24T08:35:59;98665.28;;;2.54;100.00
20115;BME280;10218;42.874;25.320;2023-01-24T08:38:29;98663.69;;;2.51;100.00
20115;BME280;10218;42.874;25.320;2023-01-24T08:41:02;98668.13;;;2.96;100.00
20115;BME280;10218;42.874;25.320;2023-01-24T08:43:30;98674.13;;;2.84;100.00
20115;BME280;10218;42.874;25.320;2023-01-24T08:45:58;98676.28;;;2.62;100.00
20115;BME280;10218;42.874;25.320;2023-01-24T08:48:28;98683.06;;;2.66;100.00
20115;BME280;10218;42.874;25.320;2023-01-24T08:50:55;98678.12;;;2.44;100.00
20115;BME280;10218;42.874;25.320;2023-01-24T08:53:23;98686.81;;;2.93;100.00
20115;BME280;10218;42.874;25.320;2023-01-24T08:55:50;98677.03;;;2.64;100.00
20115;BME280;10218;42.874;25.320;2023-01-24T08:58:17;98678.22;;;2.74;100.00
20115;BME280;10218;42.874;25.320;2023-01-24T09:00:45;98682.37;;;3.24;100.00
20115;BME280;10218;42.874;25.320;2023-01-24T09:03:16;98675.75;;;3.17;100.00
20115;BME280;10218;42.874;25.320;2023-01-24T09:05:44;98674.25;;;3.57;100.00
20115;BME280;10218;42.874;25.320;2023-01-24T09:08:12;98671.09;;;3.06;100.00
20115;BME280;10218;42.874;25.320;2023-01-24T09:10:39;98654.19;;;3.24;100.00
20115;BME280;10218;42.874;25.320;2023-01-24T09:13:07;98678.22;;;3.50;100.00
20115;BME280;10218;42.874;25.320;2023-01-24T09:15:34;98681.44;;;3.25;100.00
20115;BME280;10218;42.874;25.320;2023-01-24T09:18:02;98677.38;;;2.89;100.00
20115;BME280;10218;42.874;25.320;2023-01-24T09:20:30;98671.72;;;3.55;100.00
20115;BME280;10218;42.874;25.320;2023-01-24T09:22:57;98666.72;;;4.07;100.00
20115;BME280;10218;42.874;25.320;2023-01-24T09:25:24;98662.19;;;4.09;100.00
20115;BME280;10218;42.874;25.320;2023-01-24T09:27:53;98669.75;;;3.87;100.00
20115;BME280;10218;42.874;25.320;2023-01-24T09:30:20;98662.50;;;3.91;100.00
20115;BME280;10218;42.874;25.320;2023-01-24T09:32:49;98672.97;;;3.34;100.00
20115;BME280;10218;42.874;25.320;2023-01-24T09:35:17;98660.78;;;3.90;100.00
20115;BME280;10218;42.874;25.320;2023-01-24T09:37:44;98660.22;;;3.70;100.00
20115;BME280;10218;42.874;25.320;2023-01-24T09:40:26;98669.41;;;3.35;100.00
20115;BME280;10218;42.874;25.320;2023-01-24T09:48:35;98653.09;;;3.71;100.00
20115;BME280;10218;42.874;25.320;2023-01-24T09:51:05;98659.47;;;2.94;100.00
20115;BME280;10218;42.874;25.320;2023-01-24T09:53:41;98653.50;;;3.93;100.00
20115;BME280;10218;42.874;25.320;2023-01-24T09:56:29;98646.31;;;3.81;100.00
20115;BME280;10218;42.874;25.320;2023-01-24T10:01:38;98652.41;;;4.38;100.00
20115;BME280;10218;42.874;25.320;2023-01-24T10:04:14;98642.47;;;4.01;100.00
20115;BME280;10218;42.874;25.320;2023-01-24T10:07:33;98647.34;;;4.07;100.00
20115;BME280;10218;42.874;25.320;2023-01-24T10:09:59;98646.75;;;4.44;100.00
20115;BME280;10218;42.874;25.320;2023-01-24T10:15:39;98646.91;;;3.14;100.00
20115;BME280;10218;42.874;25.320;2023-01-24T10:18:24;98646.72;;;3.31;100.00
20115;BME280;10218;42.874;25.320;2023-01-24T10:23:47;98649.22;;;3.34;100.00
20115;BME280;10218;42.874;25.320;2023-01-24T10:26:19;98646.59;;;3.62;100.00
20115;BME280;10218;42.874;25.320;2023-01-24T10:28:51;98632.28;;;3.80;100.00
20115;BME280;10218;42.874;25.320;2023-01-24T10:31:29;98635.06;;;3.35;100.00
20115;BME280;10218;42.874;25.320;2023-01-24T10:34:04;98641.38;;;3.03;100.00
20115;BME280;10218;42.874;25.320;2023-01-24T10:36:46;98641.44;;;2.71;100.00
20115;BME280;10218;42.874;25.320;2023-01-24T10:39:15;98637.34;;;3.55;100.00
20115;BME280;10218;42.874;25.320;2023-01-24T10:41:43;98635.81;;;4.36;100.00
20115;BME280;10218;42.874;25.320;2023-01-24T10:50:01;98627.72;;;3.68;100.00
20115;BME280;10218;42.874;25.320;2023-01-24T10:52:29;98625.81;;;3.56;100.00
20115;BME280;10218;42.874;25.320;2023-01-24T10:54:58;98615.81;;;4.04;100.00
20115;BME280;10218;42.874;25.320;2023-01-24T11:02:50;98594.06;;;4.54;100.00
20115;BME280;10218;42.874;25.320;2023-01-24T11:05:19;98601.34;;;5.16;100.00
20115;BME280;10218;42.874;25.320;2023-01-24T11:08:10;98603.16;;;4.77;100.00
20115;BME280;10218;42.874;25.320;2023-01-24T11:10:42;98605.13;;;4.19;100.00
20115;BME280;10218;42.874;25.320;2023-01-24T11:13:39;98603.94;;;4.91;100.00
20115;BME280;10218;42.874;25.320;2023-01-24T11:21:19;98588.16;;;4.63;100.00
20115;BME280;10218;42.874;25.320;2023-01-24T11:23:58;98586.97;;;4.27;100.00
20115;BME280;10218;42.874;25.320;2023-01-24T11:26:29;98580.81;;;4.81;100.00
20115;BME280;10218;42.874;25.320;2023-01-24T11:31:35;98571.94;;;4.82;100.00
20115;BME280;10218;42.874;25.320;2023-01-24T11:34:28;98578.78;;;4.04;100.00
20115;BME280;10218;42.874;25.320;2023-01-24T11:37:06;98571.53;;;4.34;100.00
20115;BME280;10218;42.874;25.320;2023-01-24T11:40:19;98570.41;;;3.83;100.00
20115;BME280;10218;42.874;25.320;2023-01-24T11:45:32;98572.75;;;4.16;100.00
20115;BME280;10218;42.874;25.320;2023-01-24T11:57:00;98564.22;;;3.70;100.00
20115;BME280;10218;42.874;25.320;2023-01-24T12:05:26;98558.78;;;4.00;100.00
20115;BME280;10218;42.874;25.320;2023-01-24T12:07:53;98564.66;;;3.91;100.00
20115;BME280;10218;42.874;25.320;2023-01-24T12:13:12;98560.50;;;3.72;100.00
20115;BME280;10218;42.874;25.320;2023-01-24T12:15:51;98561.28;;;3.74;100.00
20115;BME280;10218;42.874;25.320;2023-01-24T12:18:28;98563.53;;;3.66;100.00
20115;BME280;10218;42.874;25.320;2023-01-24T12:21:07;98561.94;;;3.50;100.00
20115;BME280;10218;42.874;25.320;2023-01-24T12:24:19;98567.31;;;3.48;100.00
20115;BME280;10218;42.874;25.320;2023-01-24T12:26:54;98567.87;;;3.39;100.00
20115;BME280;10218;42.874;25.320;2023-01-24T12:32:05;98572.47;;;4.06;100.00
20115;BME280;10218;42.874;25.320;2023-01-24T12:37:37;98578.84;;;3.75;100.00
20115;BME280;10218;42.874;25.320;2023-01-24T12:47:59;98576.37;;;3.72;100.00
20115;BME280;10218;42.874;25.320;2023-01-24T12:54:27;98582.44;;;3.74;100.00
20115;BME280;10218;42.874;25.320;2023-01-24T12:59:37;98585.66;;;3.65;100.00
20115;BME280;10218;42.874;25.320;2023-01-24T13:08:19;98585.63;;;3.37;100.00
20115;BME280;10218;42.874;25.320;2023-01-24T13:11:26;98589.88;;;3.54;100.00
20115;BME280;10218;42.874;25.320;2023-01-24T13:22:02;98599.69;;;3.80;100.00
20115;BME280;10218;42.874;25.320;2023-01-24T13:25:47;98596.66;;;3.58;100.00
20115;BME280;10218;42.874;25.320;2023-01-24T13:27:51;98602.53;;;3.63;100.00
20115;BME280;10218;42.874;25.320;2023-01-24T13:33:14;98598.09;;;3.49;100.00
20115;BME280;10218;42.874;25.320;2023-01-24T13:35:48;98602.78;;;3.86;100.00
20115;BME280;10218;42.874;25.320;2023-01-24T13:38:23;98604.88;;;3.53;100.00
20115;BME280;10218;42.874;25.320;2023-01-24T13:41:02;98612.25;;;3.76;100.00
20115;BME280;10218;42.874;25.320;2023-01-24T13:46:03;98610.53;;;3.47;100.00
20115;BME280;10218;42.874;25.320;2023-01-24T13:48:44;98610.72;;;3.58;100.00
20115;BME280;10218;42.874;25.320;2023-01-24T13:53:57;98611.75;;;3.98;100.00
20115;BME280;10218;42.874;25.320;2023-01-24T13:56:25;98613.94;;;3.49;100.00
20115;BME280;10218;42.874;25.320;2023-01-24T13:58:55;98604.59;;;3.43;100.00
20115;BME280;10218;42.874;25.320;2023-01-24T14:01:24;98615.56;;;3.80;100.00
20115;BME280;10218;42.874;25.320;2023-01-24T14:04:03;98612.63;;;3.99;100.00
20115;BME280;10218;42.874;25.320;2023-01-24T14:06:42;98615.25;;;3.42;100.00
20115;BME280;10218;42.874;25.320;2023-01-24T14:09:21;98612.94;;;3.22;100.00
20115;BME280;10218;42.874;25.320;2023-01-24T14:11:56;98616.97;;;3.57;100.00
20115;BME280;10218;42.874;25.320;2023-01-24T14:14:36;98618.28;;;3.64;100.00
20115;BME280;10218;42.874;25.320;2023-01-24T14:17:28;98618.00;;;3.55;100.00
20115;BME280;10218;42.874;25.320;2023-01-24T14:20:44;98618.88;;;3.25;100.00
20115;BME280;10218;42.874;25.320;2023-01-24T14:23:30;98614.87;;;3.34;100.00
20115;BME280;10218;42.874;25.320;2023-01-24T14:26:00;98613.66;;;3.96;100.00
20115;BME280;10218;42.874;25.320;2023-01-24T14:28:45;98609.22;;;3.68;100.00
20115;BME280;10218;42.874;25.320;2023-01-24T14:31:26;98613.47;;;3.42;100.00
20115;BME280;10218;42.874;25.320;2023-01-24T14:34:25;98607.34;;;3.70;100.00
20115;BME280;10218;42.874;25.320;2023-01-24T14:37:00;98605.03;;;3.36;100.00
20115;BME280;10218;42.874;25.320;2023-01-24T14:39:29;98608.78;;;3.18;100.00
20115;BME280;10218;42.874;25.320;2023-01-24T14:41:57;98606.31;;;3.44;100.00
20115;BME280;10218;42.874;25.320;2023-01-24T14:44:34;98604.09;;;3.37;100.00
20115;BME280;10218;42.874;25.320;2023-01-24T14:49:47;98609.38;;;3.37;100.00
20115;BME280;10218;42.874;25.320;2023-01-24T14:52:37;98616.31;;;3.54;100.00
20115;BME280;10218;42.874;25.320;2023-01-24T14:55:28;98616.66;;;3.48;100.00
20115;BME280;10218;42.874;25.320;2023-01-24T14:58:46;98625.22;;;3.37;100.00
20115;BME280;10218;42.874;25.320;2023-01-24T15:01:23;98616.38;;;2.94;100.00
20115;BME280;10218;42.874;25.320;2023-01-24T15:03:51;98623.94;;;3.58;100.00
20115;BME280;10218;42.874;25.320;2023-01-24T15:06:18;98616.00;;;3.44;100.00
20115;BME280;10218;42.874;25.320;2023-01-24T15:08:46;98624.88;;;3.43;100.00